sensor_id;sensor_type;location;lat;lon;timestamp;P1;P2;P0
72307;PMS5003;60257;42.638;23.376;2023-05-01T00:00:49;27.33;24.67;16.33
72307;PMS5003;60257;42.638;23.376;2023-05-01T00:03:14;21.67;21.00;13.00
72307;PMS5003;60257;42.638;23.376;2023-05-01T00:05:42;29.00;28.67;17.33
72307;PMS5003;60257;42.638;23.376;2023-05-01T00:08:08;27.33;26.33;19.00
72307;PMS5003;60257;42.638;23.376;2023-05-01T00:10:34;25.00;25.00;17.67
72307;PMS5003;60257;42.638;23.376;2023-05-01T00:13:00;27.67;26.33;17.67
72307;PMS5003;60257;42.638;23.376;2023-05-01T00:15:26;29.33;29.33;17.00
72307;PMS5003;60257;42.638;23.376;2023-05-01T00:17:52;32.67;28.33;19.00
72307;PMS5003;60257;42.638;23.376;2023-05-01T00:20:19;26.00;25.00;18.00
72307;PMS5003;60257;42.638;23.376;2023-05-01T00:22:44;23.33;23.00;15.00
72307;PMS5003;60257;42.638;23.376;2023-05-01T00:25:10;24.67;23.33;16.00
72307;PMS5003;60257;42.638;23.376;2023-05-01T00:27:35;28.00;26.67;17.00
72307;PMS5003;60257;42.638;23.376;2023-05-01T00:30:01;20.67;19.33;15.33
72307;PMS5003;60257;42.638;23.376;2023-05-01T00:32:27;25.67;24.00;16.00
72307;PMS5003;60257;42.638;23.376;2023-05-01T00:34:53;21.67;21.67;16.00
72307;PMS5003;60257;42.638;23.376;2023-05-01T00:37:20;21.33;20.33;14.00
72307;PMS5003;60257;42.638;23.376;2023-05-01T00:39:46;28.00;26.33;18.00
72307;PMS5003;60257;42.638;23.376;2023-05-01T00:42:11;22.67;22.67;15.67
72307;PMS5003;60257;42.638;23.376;2023-05-01T00:44:36;27.67;26.33;18.33
72307;PMS5003;60257;42.638;23.376;2023-05-01T00:47:02;31.00;30.00;21.00
72307;PMS5003;60257;42.638;23.376;2023-05-01T00:49:28;25.67;23.67;17.00
72307;PMS5003;60257;42.638;23.376;2023-05-01T00:51:54;28.67;28.67;18.00
72307;PMS5003;60257;42.638;23.376;2023-05-01T00:54:19;26.67;25.67;17.00
72307;PMS5003;60257;42.638;23.376;2023-05-01T00:56:47;25.00;25.00;17.00
72307;PMS5003;60257;42.638;23.376;2023-05-01T00:59:13;31.67;30.00;20.00
72307;PMS5003;60257;42.638;23.376;2023-05-01T01:01:40;34.67;30.00;19.33
72307;PMS5003;60257;42.638;23.376;2023-05-01T01:04:06;24.67;24.33;17.00
72307;PMS5003;60257;42.638;23.376;2023-05-01T01:06:34;28.67;27.33;19.67
72307;PMS5003;60257;42.638;23.376;2023-05-01T01:14:54;21.67;21.67;13.33
72307;PMS5003;60257;42.638;23.376;2023-05-01T01:22:52;28.67;27.33;19.00
72307;PMS5003;60257;42.638;23.376;2023-05-01T01:31:19;31.00;29.00;17.00
72307;PMS5003;60257;42.638;23.376;2023-05-01T01:34:04;30.00;28.33;19.67
72307;PMS5003;60257;42.638;23.376;2023-05-01T01:42:24;27.00;25.00;15.67
72307;PMS5003;60257;42.638;23.376;2023-05-01T01:44:57;25.00;24.00;15.33
72307;PMS5003;60257;42.638;23.376;2023-05-01T01:47:28;28.33;27.33;17.33
72307;PMS5003;60257;42.638;23.376;2023-05-01T01:49:56;27.33;25.67;17.33
72307;PMS5003;60257;42.638;23.376;2023-05-01T01:52:25;31.00;30.00;20.67
72307;PMS5003;60257;42.638;23.376;2023-05-01T01:54:53;21.67;18.67;14.67
72307;PMS5003;60257;42.638;23.376;2023-05-01T01:57:22;25.67;25.67;16.00
72307;PMS5003;60257;42.638;23.376;2023-05-01T01:59:51;28.67;26.67;18.00
72307;PMS5003;60257;42.638;23.376;2023-05-01T02:02:19;31.67;27.33;19.00
72307;PMS5003;60257;42.638;23.376;2023-05-01T02:04:50;26.00;25.33;17.00
72307;PMS5003;60257;42.638;23.376;2023-05-01T02:07:26;26.33;26.33;19.00
72307;PMS5003;60257;42.638;23.376;2023-05-01T02:09:53;25.67;25.33;15.67
72307;PMS5003;60257;42.638;23.376;2023-05-01T02:12:21;26.67;25.33;16.00
72307;PMS5003;60257;42.638;23.376;2023-05-01T02:14:50;20.00;19.33;10.00
72307;PMS5003;60257;42.638;23.376;2023-05-01T02:17:18;33.33;32.00;20.00
72307;PMS5003;60257;42.638;23.376;2023-05-01T02:19:45;30.67;29.67;20.00
72307;PMS5003;60257;42.638;23.376;2023-05-01T02:22:10;28.33;26.33;18.33
72307;PMS5003;60257;42.638;23.376;2023-05-01T02:24:37;24.67;24.67;16.33
72307;PMS5003;60257;42.638;23.376;2023-05-01T02:27:07;28.00;27.33;19.33
72307;PMS5003;60257;42.638;23.376;2023-05-01T02:29:36;24.67;24.33;15.00
72307;PMS5003;60257;42.638;23.376;2023-05-01T02:32:02;27.00;25.67;17.00
72307;PMS5003;60257;42.638;23.376;2023-05-01T02:34:27;25.00;23.67;17.00
72307;PMS5003;60257;42.638;23.376;2023-05-01T02:36:53;34.67;29.67;21.33
72307;PMS5003;60257;42.638;23.376;2023-05-01T02:39:18;27.33;27.33;17.67
72307;PMS5003;60257;42.638;23.376;2023-05-01T02:41:44;24.33;22.67;15.00
72307;PMS5003;60257;42.638;23.376;2023-05-01T02:44:12;29.67;26.00;18.00
72307;PMS5003;60257;42.638;23.376;2023-05-01T02:46:41;31.00;31.00;22.00
72307;PMS5003;60257;42.638;23.376;2023-05-01T02:49:09;29.00;27.33;19.00
72307;PMS5003;60257;42.638;23.376;2023-05-01T02:51:36;25.33;24.00;17.33
72307;PMS5003;60257;42.638;23.376;2023-05-01T02:54:02;29.33;28.33;19.00
72307;PMS5003;60257;42.638;23.376;2023-05-01T02:56:28;28.33;28.33;18.00
72307;PMS5003;60257;42.638;23.376;2023-05-01T02:58:54;31.67;30.67;19.00
72307;PMS5003;60257;42.638;23.376;2023-05-01T03:01:20;27.67;24.00;13.00
72307;PMS5003;60257;42.638;23.376;2023-05-01T03:03:46;26.67;26.67;18.67
72307;PMS5003;60257;42.638;23.376;2023-05-01T03:06:12;25.00;22.67;15.00
72307;PMS5003;60257;42.638;23.376;2023-05-01T03:08:40;26.67;26.67;17.33
72307;PMS5003;60257;42.638;23.376;2023-05-01T03:11:06;28.67;27.00;19.00
72307;PMS5003;60257;42.638;23.376;2023-05-01T03:13:32;26.33;26.33;17.33
72307;PMS5003;60257;42.638;23.376;2023-05-01T03:15:58;36.33;33.00;19.67
72307;PMS5003;60257;42.638;23.376;2023-05-01T03:18:23;27.33;27.33;18.33
72307;PMS5003;60257;42.638;23.376;2023-05-01T03:20:50;31.33;31.33;20.00
72307;PMS5003;60257;42.638;23.376;2023-05-01T03:23:17;27.67;26.33;19.00
72307;PMS5003;60257;42.638;23.376;2023-05-01T03:25:42;30.00;25.67;14.33
72307;PMS5003;60257;42.638;23.376;2023-05-01T03:28:08;18.67;17.00;12.00
72307;PMS5003;60257;42.638;23.376;2023-05-01T03:30:34;24.33;24.33;18.33
72307;PMS5003;60257;42.638;23.376;2023-05-01T03:33:00;26.00;25.33;18.33
72307;PMS5003;60257;42.638;23.376;2023-05-01T03:35:26;24.00;23.00;14.00
72307;PMS5003;60257;42.638;23.376;2023-05-01T03:37:52;28.33;25.00;16.00
72307;PMS5003;60257;42.638;23.376;2023-05-01T03:40:17;26.00;24.67;15.33
72307;PMS5003;60257;42.638;23.376;2023-05-01T03:42:43;20.00;19.33;14.33
72307;PMS5003;60257;42.638;23.376;2023-05-01T03:45:09;23.00;23.00;16.33
72307;PMS5003;60257;42.638;23.376;2023-05-01T03:47:35;19.00;19.00;13.00
72307;PMS5003;60257;42.638;23.376;2023-05-01T03:50:00;31.67;24.67;14.67
72307;PMS5003;60257;42.638;23.376;2023-05-01T03:52:26;29.33;28.00;15.00
72307;PMS5003;60257;42.638;23.376;2023-05-01T03:54:52;24.33;24.33;14.33
72307;PMS5003;60257;42.638;23.376;2023-05-01T03:57:17;28.00;26.33;15.00
72307;PMS5003;60257;42.638;23.376;2023-05-01T03:59:45;24.33;24.33;17.33
72307;PMS5003;60257;42.638;23.376;2023-05-01T04:02:11;26.00;25.00;17.00
72307;PMS5003;60257;42.638;23.376;2023-05-01T04:04:37;20.00;20.00;14.67
72307;PMS5003;60257;42.638;23.376;2023-05-01T04:07:02;32.00;29.33;18.00
72307;PMS5003;60257;42.638;23.376;2023-05-01T04:09:29;22.67;22.67;15.33
72307;PMS5003;60257;42.638;23.376;2023-05-01T04:11:54;27.33;24.00;16.00
72307;PMS5003;60257;42.638;23.376;2023-05-01T04:14:20;24.33;21.67;18.33
72307;PMS5003;60257;42.638;23.376;2023-05-01T04:16:45;29.67;26.00;17.67
72307;PMS5003;60257;42.638;23.376;2023-05-01T04:19:11;21.00;21.00;14.33
72307;PMS5003;60257;42.638;23.376;2023-05-01T04:21:37;22.67;22.00;14.67
72307;PMS5003;60257;42.638;23.376;2023-05-01T04:24:03;26.00;25.67;19.00
72307;PMS5003;60257;42.638;23.376;2023-05-01T04:26:28;31.00;31.00;19.00
72307;PMS5003;60257;42.638;23.376;2023-05-01T04:28:54;18.00;15.00;9.00
72307;PMS5003;60257;42.638;23.376;2023-05-01T04:31:19;26.00;24.67;18.00
72307;PMS5003;60257;42.638;23.376;2023-05-01T04:33:45;30.67;29.00;19.33
72307;PMS5003;60257;42.638;23.376;2023-05-01T04:36:10;33.00;31.00;19.00
72307;PMS5003;60257;42.638;23.376;2023-05-01T04:38:36;27.67;27.67;20.00
72307;PMS5003;60257;42.638;23.376;2023-05-01T04:41:03;35.33;33.67;22.00
72307;PMS5003;60257;42.638;23.376;2023-05-01T04:43:29;34.67;31.00;19.00
72307;PMS5003;60257;42.638;23.376;2023-05-01T04:45:54;35.00;31.33;21.33
72307;PMS5003;60257;42.638;23.376;2023-05-01T04:48:20;29.33;28.00;20.33
72307;PMS5003;60257;42.638;23.376;2023-05-01T04:50:45;37.33;35.00;21.33
72307;PMS5003;60257;42.638;23.376;2023-05-01T04:53:11;28.00;28.00;17.00
72307;PMS5003;60257;42.638;23.376;2023-05-01T04:55:36;30.00;29.00;18.67
72307;PMS5003;60257;42.638;23.376;2023-05-01T04:58:02;26.67;24.33;16.33
72307;PMS5003;60257;42.638;23.376;2023-05-01T05:00:30;18.33;17.00;11.33
72307;PMS5003;60257;42.638;23.376;2023-05-01T05:02:56;26.33;25.00;17.33
72307;PMS5003;60257;42.638;23.376;2023-05-01T05:05:21;28.67;28.33;19.33
72307;PMS5003;60257;42.638;23.376;2023-05-01T05:07:47;29.67;26.33;19.00
72307;PMS5003;60257;42.638;23.376;2023-05-01T05:10:12;31.67;29.67;22.00
72307;PMS5003;60257;42.638;23.376;2023-05-01T05:12:38;32.33;32.00;21.00
72307;PMS5003;60257;42.638;23.376;2023-05-01T05:15:04;27.33;27.33;19.33
72307;PMS5003;60257;42.638;23.376;2023-05-01T05:17:30;24.00;24.00;16.00
72307;PMS5003;60257;42.638;23.376;2023-05-01T05:19:55;29.00;27.33;18.00
72307;PMS5003;60257;42.638;23.376;2023-05-01T05:22:21;24.00;23.33;17.67
72307;PMS5003;60257;42.638;23.376;2023-05-01T05:24:46;30.67;29.00;20.33
72307;PMS5003;60257;42.638;23.376;2023-05-01T05:27:17;26.33;26.33;18.00
72307;PMS5003;60257;42.638;23.376;2023-05-01T05:29:43;28.00;26.67;19.67
72307;PMS5003;60257;42.638;23.376;2023-05-01T05:32:08;27.33;27.00;19.00
72307;PMS5003;60257;42.638;23.376;2023-05-01T05:34:34;42.33;38.67;25.00
72307;PMS5003;60257;42.638;23.376;2023-05-01T05:36:59;37.33;36.00;22.67
72307;PMS5003;60257;42.638;23.376;2023-05-01T05:39:25;65.75;53.25;33.00
72307;PMS5003;60257;42.638;23.376;2023-05-01T05:41:51;39.67;36.67;25.33
72307;PMS5003;60257;42.638;23.376;2023-05-01T05:44:19;44.33;39.33;26.00
72307;PMS5003;60257;42.638;23.376;2023-05-01T05:46:44;35.33;34.33;23.33
72307;PMS5003;60257;42.638;23.376;2023-05-01T05:49:10;37.00;33.00;22.00
72307;PMS5003;60257;42.638;23.376;2023-05-01T05:51:36;40.00;35.67;22.00
72307;PMS5003;60257;42.638;23.376;2023-05-01T05:54:01;31.67;30.00;19.67
72307;PMS5003;60257;42.638;23.376;2023-05-01T05:56:27;38.67;35.67;23.33
72307;PMS5003;60257;42.638;23.376;2023-05-01T05:58:52;37.00;36.00;23.00
72307;PMS5003;60257;42.638;23.376;2023-05-01T06:01:18;37.00;35.33;24.33
72307;PMS5003;60257;42.638;23.376;2023-05-01T06:03:43;32.33;30.33;21.00
72307;PMS5003;60257;42.638;23.376;2023-05-01T06:06:09;36.67;33.00;23.00
72307;PMS5003;60257;42.638;23.376;2023-05-01T06:08:34;42.00;37.00;24.00
72307;PMS5003;60257;42.638;23.376;2023-05-01T06:11:01;43.33;38.67;24.33
72307;PMS5003;60257;42.638;23.376;2023-05-01T06:13:27;36.00;34.67;23.67
72307;PMS5003;60257;42.638;23.376;2023-05-01T06:15:52;35.67;34.00;23.00
72307;PMS5003;60257;42.638;23.376;2023-05-01T06:18:18;44.67;37.67;25.00
72307;PMS5003;60257;42.638;23.376;2023-05-01T06:20:43;41.67;38.00;25.00
72307;PMS5003;60257;42.638;23.376;2023-05-01T06:23:09;32.00;32.00;21.67
72307;PMS5003;60257;42.638;23.376;2023-05-01T06:25:35;41.33;36.33;24.00
72307;PMS5003;60257;42.638;23.376;2023-05-01T06:28:01;43.00;39.33;25.00
72307;PMS5003;60257;42.638;23.376;2023-05-01T06:30:28;33.67;30.33;22.00
72307;PMS5003;60257;42.638;23.376;2023-05-01T06:32:53;44.33;36.33;24.00
72307;PMS5003;60257;42.638;23.376;2023-05-01T06:35:19;31.00;31.00;21.00
72307;PMS5003;60257;42.638;23.376;2023-05-01T06:37:45;36.33;35.00;23.33
72307;PMS5003;60257;42.638;23.376;2023-05-01T06:40:10;42.00;36.00;25.00
72307;PMS5003;60257;42.638;23.376;2023-05-01T06:42:37;38.33;34.67;24.00
72307;PMS5003;60257;42.638;23.376;2023-05-01T06:45:03;40.33;36.00;24.00
72307;PMS5003;60257;42.638;23.376;2023-05-01T06:47:30;45.33;39.67;26.33
72307;PMS5003;60257;42.638;23.376;2023-05-01T06:49:56;43.33;36.33;25.00
72307;PMS5003;60257;42.638;23.376;2023-05-01T06:52:21;29.67;29.67;21.00
72307;PMS5003;60257;42.638;23.376;2023-05-01T06:54:46;31.67;31.00;20.00
72307;PMS5003;60257;42.638;23.376;2023-05-01T06:57:12;28.67;28.67;19.67
72307;PMS5003;60257;42.638;23.376;2023-05-01T06:59:37;36.00;34.00;23.00
72307;PMS5003;60257;42.638;23.376;2023-05-01T07:02:04;31.67;30.33;21.33
72307;PMS5003;60257;42.638;23.376;2023-05-01T07:04:30;26.00;26.00;16.67
72307;PMS5003;60257;42.638;23.376;2023-05-01T07:06:56;36.00;32.67;23.33
72307;PMS5003;60257;42.638;23.376;2023-05-01T07:09:21;34.67;33.67;21.00
72307;PMS5003;60257;42.638;23.376;2023-05-01T07:11:47;31.67;31.67;21.00
72307;PMS5003;60257;42.638;23.376;2023-05-01T07:14:12;28.33;28.33;21.00
72307;PMS5003;60257;42.638;23.376;2023-05-01T07:16:38;31.00;28.00;17.67
72307;PMS5003;60257;42.638;23.376;2023-05-01T07:19:03;34.00;31.33;22.67
72307;PMS5003;60257;42.638;23.376;2023-05-01T07:21:29;32.67;30.33;21.00
72307;PMS5003;60257;42.638;23.376;2023-05-01T07:23:56;28.67;28.67;18.00
72307;PMS5003;60257;42.638;23.376;2023-05-01T07:26:23;26.00;26.00;19.00
72307;PMS5003;60257;42.638;23.376;2023-05-01T07:28:50;31.67;28.33;19.33
72307;PMS5003;60257;42.638;23.376;2023-05-01T07:31:16;25.67;25.67;19.00
72307;PMS5003;60257;42.638;23.376;2023-05-01T07:33:41;29.00;23.67;17.67
72307;PMS5003;60257;42.638;23.376;2023-05-01T07:36:07;33.33;31.00;20.00
72307;PMS5003;60257;42.638;23.376;2023-05-01T07:38:33;28.33;28.33;20.00
72307;PMS5003;60257;42.638;23.376;2023-05-01T07:40:59;26.33;24.67;17.67
72307;PMS5003;60257;42.638;23.376;2023-05-01T07:43:24;32.33;31.00;22.67
72307;PMS5003;60257;42.638;23.376;2023-05-01T07:45:56;28.33;27.00;17.00
72307;PMS5003;60257;42.638;23.376;2023-05-01T07:48:24;31.67;31.00;19.67
72307;PMS5003;60257;42.638;23.376;2023-05-01T07:50:51;33.00;32.00;21.67
72307;PMS5003;60257;42.638;23.376;2023-05-01T07:53:16;32.67;31.67;22.67
72307;PMS5003;60257;42.638;23.376;2023-05-01T07:55:42;36.33;34.00;23.33
72307;PMS5003;60257;42.638;23.376;2023-05-01T07:58:07;31.00;30.67;19.67
72307;PMS5003;60257;42.638;23.376;2023-05-01T08:00:34;40.33;35.00;23.33
72307;PMS5003;60257;42.638;23.376;2023-05-01T08:03:00;35.00;32.00;21.00
72307;PMS5003;60257;42.638;23.376;2023-05-01T08:05:25;29.33;29.33;20.00
72307;PMS5003;60257;42.638;23.376;2023-05-01T08:07:51;32.00;30.67;20.67
72307;PMS5003;60257;42.638;23.376;2023-05-01T08:10:16;26.00;25.00;16.33
72307;PMS5003;60257;42.638;23.376;2023-05-01T08:12:42;32.67;31.33;21.00
72307;PMS5003;60257;42.638;23.376;2023-05-01T08:15:07;32.00;31.00;22.00
72307;PMS5003;60257;42.638;23.376;2023-05-01T08:17:34;30.67;27.00;18.67
72307;PMS5003;60257;42.638;23.376;2023-05-01T08:19:59;28.33;25.00;16.33
72307;PMS5003;60257;42.638;23.376;2023-05-01T08:22:25;23.67;23.67;17.67
72307;PMS5003;60257;42.638;23.376;2023-05-01T08:24:50;28.33;27.67;18.00
72307;PMS5003;60257;42.638;23.376;2023-05-01T08:27:16;23.00;22.00;15.00
72307;PMS5003;60257;42.638;23.376;2023-05-01T08:29:42;19.33;19.33;12.00
72307;PMS5003;60257;42.638;23.376;2023-05-01T08:32:08;17.50;17.50;12.25
72307;PMS5003;60257;42.638;23.376;2023-05-01T08:34:34;21.50;20.25;12.25
72307;PMS5003;60257;42.638;23.376;2023-05-01T08:37:00;26.00;23.00;15.33
72307;PMS5003;60257;42.638;23.376;2023-05-01T08:39:26;22.00;22.00;15.00
72307;PMS5003;60257;42.638;23.376;2023-05-01T08:41:51;20.25;19.75;14.00
72307;PMS5003;60257;42.638;23.376;2023-05-01T08:44:18;19.33;19.00;14.00
72307;PMS5003;60257;42.638;23.376;2023-05-01T08:49:30;17.25;17.25;10.50
72307;PMS5003;60257;42.638;23.376;2023-05-01T08:51:57;13.25;13.25;9.00
72307;PMS5003;60257;42.638;23.376;2023-05-01T08:54:26;15.25;14.25;10.00
72307;PMS5003;60257;42.638;23.376;2023-05-01T08:56:52;13.00;13.00;8.00
72307;PMS5003;60257;42.638;23.376;2023-05-01T08:59:20;13.25;13.25;8.50
72307;PMS5003;60257;42.638;23.376;2023-05-01T09:01:47;16.00;15.25;10.75
72307;PMS5003;60257;42.638;23.376;2023-05-01T09:04:15;16.25;16.25;10.00
72307;PMS5003;60257;42.638;23.376;2023-05-01T09:06:41;17.25;14.00;10.00
72307;PMS5003;60257;42.638;23.376;2023-05-01T09:09:09;13.00;11.25;8.00
72307;PMS5003;60257;42.638;23.376;2023-05-01T09:11:34;10.00;10.00;7.00
72307;PMS5003;60257;42.638;23.376;2023-05-01T09:14:01;12.25;12.00;7.75
72307;PMS5003;60257;42.638;23.376;2023-05-01T09:16:29;13.75;13.75;10.50
72307;PMS5003;60257;42.638;23.376;2023-05-01T09:18:55;16.75;15.75;10.75
72307;PMS5003;60257;42.638;23.376;2023-05-01T09:21:21;16.25;15.25;10.00
72307;PMS5003;60257;42.638;23.376;2023-05-01T09:23:49;16.00;15.50;10.50
72307;PMS5003;60257;42.638;23.376;2023-05-01T09:26:15;14.00;14.00;10.00
72307;PMS5003;60257;42.638;23.376;2023-05-01T09:28:42;8.50;8.50;5.75
72307;PMS5003;60257;42.638;23.376;2023-05-01T09:33:56;14.25;14.25;9.00
72307;PMS5003;60257;42.638;23.376;2023-05-01T09:36:26;14.25;14.00;9.50
72307;PMS5003;60257;42.638;23.376;2023-05-01T09:38:53;10.25;10.25;7.00
72307;PMS5003;60257;42.638;23.376;2023-05-01T09:41:19;12.50;12.50;9.50
72307;PMS5003;60257;42.638;23.376;2023-05-01T09:43:55;14.25;12.25;8.50
72307;PMS5003;60257;42.638;23.376;2023-05-01T09:46:24;9.50;9.00;6.00
72307;PMS5003;60257;42.638;23.376;2023-05-01T09:48:51;11.00;11.00;8.00
72307;PMS5003;60257;42.638;23.376;2023-05-01T09:51:20;8.25;8.25;6.25
72307;PMS5003;60257;42.638;23.376;2023-05-01T09:53:48;10.50;10.50;7.25
72307;PMS5003;60257;42.638;23.376;2023-05-01T09:56:14;11.25;11.25;8.50
72307;PMS5003;60257;42.638;23.376;2023-05-01T09:58:40;8.50;8.50;7.00
72307;PMS5003;60257;42.638;23.376;2023-05-01T10:01:05;10.75;10.25;7.00
72307;PMS5003;60257;42.638;23.376;2023-05-01T10:03:31;7.00;7.00;1.00
72307;PMS5003;60257;42.638;23.376;2023-05-01T10:05:58;10.00;10.00;7.75
72307;PMS5003;60257;42.638;23.376;2023-05-01T10:08:42;12.00;11.00;6.75
72307;PMS5003;60257;42.638;23.376;2023-05-01T10:11:09;11.00;11.00;7.75
72307;PMS5003;60257;42.638;23.376;2023-05-01T10:13:35;7.25;7.25;4.00
72307;PMS5003;60257;42.638;23.376;2023-05-01T10:16:00;11.00;11.00;6.50
72307;PMS5003;60257;42.638;23.376;2023-05-01T10:18:31;10.50;10.00;6.50
72307;PMS5003;60257;42.638;23.376;2023-05-01T10:20:58;8.50;8.50;6.00
72307;PMS5003;60257;42.638;23.376;2023-05-01T10:23:23;8.00;6.25;6.00
72307;PMS5003;60257;42.638;23.376;2023-05-01T10:25:50;8.00;8.00;6.50
72307;PMS5003;60257;42.638;23.376;2023-05-01T10:28:26;9.75;9.25;6.00
72307;PMS5003;60257;42.638;23.376;2023-05-01T10:30:53;9.00;8.50;7.50
72307;PMS5003;60257;42.638;23.376;2023-05-01T10:33:21;9.00;9.00;7.50
72307;PMS5003;60257;42.638;23.376;2023-05-01T10:35:48;9.00;9.00;6.00
72307;PMS5003;60257;42.638;23.376;2023-05-01T10:38:29;9.50;9.00;6.00
72307;PMS5003;60257;42.638;23.376;2023-05-01T10:41:01;11.00;11.00;7.75
72307;PMS5003;60257;42.638;23.376;2023-05-01T10:43:31;9.25;8.00;6.50
72307;PMS5003;60257;42.638;23.376;2023-05-01T10:51:12;11.25;11.25;8.25
72307;PMS5003;60257;42.638;23.376;2023-05-01T10:53:38;10.25;9.25;4.75
72307;PMS5003;60257;42.638;23.376;2023-05-01T10:56:39;12.75;11.00;7.50
72307;PMS5003;60257;42.638;23.376;2023-05-01T10:58:57;10.50;10.25;7.00
72307;PMS5003;60257;42.638;23.376;2023-05-01T11:15:26;10.75;10.75;7.00
72307;PMS5003;60257;42.638;23.376;2023-05-01T11:17:57;10.00;10.00;6.25
72307;PMS5003;60257;42.638;23.376;2023-05-01T11:22:53;12.50;10.75;7.50
72307;PMS5003;60257;42.638;23.376;2023-05-01T11:25:24;10.75;9.25;6.50
72307;PMS5003;60257;42.638;23.376;2023-05-01T11:27:55;10.00;10.00;7.00
72307;PMS5003;60257;42.638;23.376;2023-05-01T11:30:22;9.75;9.75;7.50
72307;PMS5003;60257;42.638;23.376;2023-05-01T11:32:49;8.25;8.25;5.00
72307;PMS5003;60257;42.638;23.376;2023-05-01T11:35:22;13.50;12.25;8.75
72307;PMS5003;60257;42.638;23.376;2023-05-01T11:37:52;10.50;10.50;7.00
72307;PMS5003;60257;42.638;23.376;2023-05-01T11:40:27;10.25;10.25;7.00
72307;PMS5003;60257;42.638;23.376;2023-05-01T11:43:04;9.50;9.50;5.50
72307;PMS5003;60257;42.638;23.376;2023-05-01T11:45:31;8.75;8.75;6.25
72307;PMS5003;60257;42.638;23.376;2023-05-01T11:47:58;9.25;8.00;5.00
72307;PMS5003;60257;42.638;23.376;2023-05-01T11:50:31;10.75;9.50;7.00
72307;PMS5003;60257;42.638;23.376;2023-05-01T11:52:59;9.75;9.75;6.00
72307;PMS5003;60257;42.638;23.376;2023-05-01T11:55:31;6.75;6.00;3.75
72307;PMS5003;60257;42.638;23.376;2023-05-01T11:57:57;6.75;6.00;4.75
72307;PMS5003;60257;42.638;23.376;2023-05-01T12:03:04;7.00;7.00;5.25
72307;PMS5003;60257;42.638;23.376;2023-05-01T12:05:31;8.75;7.00;4.00
72307;PMS5003;60257;42.638;23.376;2023-05-01T12:08:18;13.00;13.00;9.50
72307;PMS5003;60257;42.638;23.376;2023-05-01T12:10:54;7.50;7.50;5.00
72307;PMS5003;60257;42.638;23.376;2023-05-01T12:13:21;8.00;8.00;5.00
72307;PMS5003;60257;42.638;23.376;2023-05-01T12:15:48;7.25;7.25;5.00
72307;PMS5003;60257;42.638;23.376;2023-05-01T12:18:15;6.00;6.00;4.50
72307;PMS5003;60257;42.638;23.376;2023-05-01T12:20:43;7.00;7.00;5.00
72307;PMS5003;60257;42.638;23.376;2023-05-01T12:23:13;13.50;12.75;9.00
72307;PMS5003;60257;42.638;23.376;2023-05-01T12:25:43;14.50;13.25;8.00
72307;PMS5003;60257;42.638;23.376;2023-05-01T12:28:13;7.50;7.50;5.00
72307;PMS5003;60257;42.638;23.376;2023-05-01T12:30:41;6.00;6.00;4.00
72307;PMS5003;60257;42.638;23.376;2023-05-01T12:33:12;5.75;5.75;4.00
72307;PMS5003;60257;42.638;23.376;2023-05-01T12:35:40;4.50;4.50;3.00
72307;PMS5003;60257;42.638;23.376;2023-05-01T12:38:16;6.75;6.75;4.50
72307;PMS5003;60257;42.638;23.376;2023-05-01T12:40:50;6.00;6.00;4.50
72307;PMS5003;60257;42.638;23.376;2023-05-01T12:43:17;5.00;5.00;3.00
72307;PMS5003;60257;42.638;23.376;2023-05-01T12:45:50;4.75;4.25;3.25
72307;PMS5003;60257;42.638;23.376;2023-05-01T12:48:17;5.25;5.25;3.00
72307;PMS5003;60257;42.638;23.376;2023-05-01T12:50:43;8.50;6.25;4.25
72307;PMS5003;60257;42.638;23.376;2023-05-01T12:53:10;4.00;4.00;4.00
72307;PMS5003;60257;42.638;23.376;2023-05-01T12:55:45;7.00;7.00;4.25
72307;PMS5003;60257;42.638;23.376;2023-05-01T12:58:13;5.75;5.75;3.50
72307;PMS5003;60257;42.638;23.376;2023-05-01T13:00:43;5.75;5.00;3.00
72307;PMS5003;60257;42.638;23.376;2023-05-01T13:03:10;8.25;8.25;4.00
72307;PMS5003;60257;42.638;23.376;2023-05-01T13:05:48;6.00;6.00;4.50
72307;PMS5003;60257;42.638;23.376;2023-05-01T13:08:14;7.00;6.00;3.75
72307;PMS5003;60257;42.638;23.376;2023-05-01T13:10:40;7.00;7.00;5.00
72307;PMS5003;60257;42.638;23.376;2023-05-01T13:13:05;5.75;5.75;4.25
72307;PMS5003;60257;42.638;23.376;2023-05-01T13:15:31;6.50;6.50;5.00
72307;PMS5003;60257;42.638;23.376;2023-05-01T13:18:02;9.25;7.00;4.25
72307;PMS5003;60257;42.638;23.376;2023-05-01T13:20:29;6.00;6.00;4.75
72307;PMS5003;60257;42.638;23.376;2023-05-01T13:22:54;7.75;7.75;6.00
72307;PMS5003;60257;42.638;23.376;2023-05-01T13:25:20;9.25;9.25;6.00
72307;PMS5003;60257;42.638;23.376;2023-05-01T13:27:49;10.25;10.25;7.25
72307;PMS5003;60257;42.638;23.376;2023-05-01T13:30:20;10.00;10.00;6.25
72307;PMS5003;60257;42.638;23.376;2023-05-01T13:32:55;7.75;7.00;4.25
72307;PMS5003;60257;42.638;23.376;2023-05-01T13:35:24;8.25;8.25;5.00
72307;PMS5003;60257;42.638;23.376;2023-05-01T13:37:51;6.50;6.50;4.00
72307;PMS5003;60257;42.638;23.376;2023-05-01T13:40:17;9.00;9.00;5.00
72307;PMS5003;60257;42.638;23.376;2023-05-01T13:42:44;9.75;6.50;5.00
72307;PMS5003;60257;42.638;23.376;2023-05-01T13:45:10;8.25;7.00;5.75
72307;PMS5003;60257;42.638;23.376;2023-05-01T13:47:38;7.25;7.25;5.00
72307;PMS5003;60257;42.638;23.376;2023-05-01T13:50:08;5.00;5.00;3.00
72307;PMS5003;60257;42.638;23.376;2023-05-01T13:52:39;11.00;10.00;6.00
72307;PMS5003;60257;42.638;23.376;2023-05-01T13:55:07;10.00;10.00;6.25
72307;PMS5003;60257;42.638;23.376;2023-05-01T13:57:34;7.00;6.75;5.00
72307;PMS5003;60257;42.638;23.376;2023-05-01T14:00:01;6.00;5.00;2.75
72307;PMS5003;60257;42.638;23.376;2023-05-01T14:02:28;7.25;7.00;4.25
72307;PMS5003;60257;42.638;23.376;2023-05-01T14:04:54;6.75;6.75;5.50
72307;PMS5003;60257;42.638;23.376;2023-05-01T14:07:20;8.00;8.00;6.00
72307;PMS5003;60257;42.638;23.376;2023-05-01T14:09:54;8.75;8.75;6.00
72307;PMS5003;60257;42.638;23.376;2023-05-01T14:12:28;6.50;6.50;4.00
72307;PMS5003;60257;42.638;23.376;2023-05-01T14:14:54;6.50;6.00;4.25
72307;PMS5003;60257;42.638;23.376;2023-05-01T14:17:38;6.00;5.00;3.00
72307;PMS5003;60257;42.638;23.376;2023-05-01T14:20:04;16.25;12.50;8.50
72307;PMS5003;60257;42.638;23.376;2023-05-01T14:22:41;7.25;7.25;4.75
72307;PMS5003;60257;42.638;23.376;2023-05-01T14:27:56;3.00;3.00;2.00
72307;PMS5003;60257;42.638;23.376;2023-05-01T14:30:27;5.75;5.75;4.00
72307;PMS5003;60257;42.638;23.376;2023-05-01T14:32:57;6.25;5.25;3.00
72307;PMS5003;60257;42.638;23.376;2023-05-01T14:35:25;6.25;6.25;5.00
72307;PMS5003;60257;42.638;23.376;2023-05-01T14:37:51;6.75;6.75;4.25
72307;PMS5003;60257;42.638;23.376;2023-05-01T14:40:18;5.00;5.00;4.00